Date,TemperatureHighF,TemperatureAvgF,TemperatureLowF,DewpointHighF,DewpointAvgF,DewpointLowF,HumidityHigh,HumidityAvg,HumidityLow,PressureMaxIn,PressureMinIn,WindSpeedMaxMPH,WindSpeedAvgMPH,GustSpeedMaxMPH,PrecipitationSumIn
2013-1-1,38.8,27.1,25.7,29.9,-2.1,-99.9,74,50,56,29.97,29.80,9,-197,23,0.01
2013-1-2,30.3,20.7,20.7,18.1,-10.0,-99.9,72,49,56,30.14,29.96,7,-210,12,0.01
2013-1-3,27.6,16.2,11.1,18.1,-17.1,-99.9,68,45,40,30.21,30.08,5,-236,9,0.00
2013-1-4,37.3,28.2,27.3,29.8,3.3,-99.9,77,58,63,30.07,29.90,11,-174,21,0.00
2013-1-5,42.9,28.8,27.4,27.6,1.4,-99.9,84,54,48,30.31,29.94,8,-183,16,0.00
2013-1-6,40.9,28.0,27.3,36.7,3.9,-99.9,95,69,82,30.28,29.99,8,-214,12,0.02
2013-1-7,41.6,29.1,26.4,33.1,8.4,-99.9,97,68,64,30.46,30.02,5,-162,9,0.00
2013-1-8,45.6,34.8,35.5,38.6,14.0,-99.9,92,68,67,30.45,30.35,12,-160,19,0.00
2013-1-9,46.5,34.5,28.2,43.7,15.2,-99.9,98,75,77,30.45,30.08,10,-164,15,0.00
2013-1-10,46.5,32.1,33.1,37.2,-0.3,-99.9,79,47,47,30.55,30.13,7,-222,14,0.00
2013-1-11,42.1,31.2,29.3,38.6,10.4,-99.9,96,69,70,30.55,30.26,3,-167,7,0.13
2013-1-12,44.4,33.9,38.2,43.6,13.1,-99.9,100,77,95,30.27,30.16,4,-202,10,0.01
2013-1-13,49.5,37.5,41.2,49.2,18.2,-99.9,100,80,96,30.22,30.08,5,-188,8,0.02
2013-1-14,50.9,37.6,43.3,50.6,15.4,-99.9,100,74,69,30.28,30.00,7,-202,11,0.02
2013-1-15,43.3,30.0,37.5,38.0,2.4,-99.9,95,64,79,30.33,30.24,2,-244,6,0.12
2013-1-16,41.0,26.7,35.0,40.5,-4.9,-99.9,98,67,81,30.27,29.76,4,-303,8,0.04
2013-1-17,42.5,27.3,33.9,34.1,-8.8,-99.9,91,51,65,30.11,29.91,6,-302,10,0.04
2013-1-18,33.9,13.6,23.5,26.6,-41.5,-99.9,94,38,47,30.29,30.06,6,-524,8,0.00
2013-1-23,13.9,12.1,10.2,-0.3,-2.4,-4.8,54,51,48,30.20,30.19,7,6,15,0.00
2013-1-24,20.0,12.3,7.3,0.9,-17.2,-99.9,61,40,37,30.28,30.11,10,-149,18,0.00
2013-1-25,24.4,16.6,10.7,16.7,-11.1,-99.9,87,43,38,30.37,30.10,9,-138,16,0.00
2013-1-26,25.5,17.2,15.5,16.5,-7.6,-99.9,91,54,41,30.26,30.03,8,-153,15,0.00
2013-1-27,30.3,20.2,14.5,9.8,-8.6,-99.9,65,42,36,30.51,30.26,10,-144,15,0.00
2013-1-28,33.3,25.0,19.6,31.6,5.7,-99.9,97,64,44,30.51,30.04,3,-121,6,0.00
2013-1-29,38.5,28.4,31.2,36.6,8.0,-99.9,98,77,91,30.25,30.03,1,-195,3,0.03
2013-1-30,56.6,41.6,35.9,55.5,24.7,-99.9,99,81,92,30.21,29.60,14,-150,31,0.10
2013-1-31,56.9,36.1,33.8,54.9,8.8,-99.9,98,58,46,29.67,29.13,17,-198,27,0.00
2013-2-1,33.7,25.6,24.4,19.5,-3.6,-99.9,62,42,41,30.16,29.67,12,-146,19,0.00
2013-2-2,32.6,23.9,21.7,27.5,0.2,-99.9,92,55,47,30.32,30.10,10,-138,15,0.00
2013-2-3,34.8,22.9,23.6,27.1,-0.1,-99.9,93,67,68,30.10,29.73,6,-193,12,0.01
2013-2-4,30.7,23.0,24.0,23.0,-4.5,-99.9,89,50,45,30.01,29.76,8,-167,18,0.01
2013-2-5,29.5,21.2,23.8,28.0,-2.5,-99.9,94,64,55,30.08,29.96,3,-188,9,0.00
2013-2-6,38.3,26.7,29.0,31.8,0.6,-99.9,96,59,47,30.33,29.94,6,-193,15,0.01
2013-2-7,31.6,22.9,22.6,22.3,-4.5,-99.9,80,46,34,30.58,30.34,4,-146,8,0.01
2013-2-8,33.5,26.5,27.7,32.2,7.0,-99.9,98,76,80,30.52,29.47,7,-174,16,0.07
2013-2-22,34.2,33.7,33.3,28.0,27.3,26.8,79,77,74,30.40,30.38,0,0,4,0.00
2013-5-25,48.5,45.6,43.5,47.2,44.4,42.3,97,96,94,29.76,29.72,9,4,10,0.31
2013-5-26,59.4,49.1,43.0,46.3,37.5,-99.9,96,71,51,30.07,29.75,14,-25,15,0.31
2013-6-9,69.6,66.6,64.5,63.5,61.6,60.2,90,84,79,30.17,30.10,7,2,7,0.00
2013-6-10,71.8,62.9,58.4,62.8,59.8,57.6,98,90,67,30.20,29.99,9,1,9,0.86
2013-6-11,68.3,59.4,57.5,66.0,51.7,-99.9,100,90,91,29.99,29.55,11,-67,12,0.18
2013-6-12,72.0,61.8,56.5,59.7,52.4,-99.9,99,78,60,29.81,29.58,11,-30,12,0.18
2013-6-13,66.1,59.9,54.1,60.3,56.1,53.2,97,87,73,29.83,29.60,10,1,10,0.46
2013-6-14,65.1,51.7,52.2,58.7,37.2,-99.9,100,77,67,29.76,29.54,12,-105,12,1.28
2013-6-15,76.8,66.7,60.0,61.0,56.9,46.3,88,72,35,29.97,29.75,8,2,9,0.00
2013-6-16,73.7,65.8,60.5,63.8,60.8,53.9,97,85,52,29.97,29.78,12,2,12,0.00
2013-6-17,74.3,67.3,63.1,68.3,64.2,61.6,96,90,79,29.90,29.80,7,1,8,0.00
2013-7-2,71.2,70.9,70.5,70.3,69.8,69.5,97,96,96,30.23,30.21,5,2,6,0.00
2013-7-3,73.9,70.9,68.8,72.4,70.2,68.5,100,98,94,30.26,30.20,8,2,8,0.00
2013-7-4,74.4,67.0,68.8,72.7,60.1,-99.9,100,91,92,30.25,30.15,8,-59,10,0.00
2013-7-5,76.7,71.1,69.5,73.1,66.7,-99.9,100,92,88,30.19,30.09,8,-25,10,0.00
2013-7-6,79.3,74.0,69.9,74.3,71.7,69.2,98,93,84,30.11,29.99,6,1,6,0.00
2013-7-7,82.7,76.5,71.0,76.6,73.3,70.2,98,90,80,30.04,29.95,6,1,7,0.00
2013-7-25,67.3,64.2,62.3,63.1,61.8,60.8,97,92,82,30.05,29.99,7,1,10,0.11
2013-7-26,68.5,58.0,62.9,67.9,44.9,-99.9,99,85,94,30.03,29.87,6,-123,7,0.16
2013-10-18,61.9,38.6,45.9,50.5,2.4,-99.9,92,52,64,30.02,29.96,3,0,0,0.00
2013-10-19,64.3,49.9,56.5,57.6,26.5,-99.9,94,62,50,29.99,29.73,4,2,0,0.00
2013-10-20,62.0,55.0,43.6,47.9,41.1,37.4,86,61,41,30.04,29.87,9,1,9,0.00
2013-10-21,63.9,48.7,40.5,51.9,27.6,-99.9,96,63,47,30.15,30.04,9,-128,10,0.00
2013-10-22,65.0,51.6,47.4,57.5,32.5,-99.9,98,70,68,30.04,29.73,7,-139,8,0.00
2013-10-23,53.3,40.0,40.9,45.3,17.4,-99.9,96,66,64,29.81,29.60,3,-173,4,0.24
2013-10-24,53.3,38.8,44.4,42.7,5.0,-99.9,91,44,41,29.93,29.66,12,-213,13,0.24
2013-10-25,51.8,40.1,41.0,38.4,14.5,-99.9,78,53,49,30.20,29.92,8,-146,9,0.00
2013-10-26,57.3,44.3,36.5,47.9,22.0,-99.9,92,59,56,30.21,29.91,18,-129,24,0.00
2013-10-27,56.7,43.1,46.1,46.2,12.9,-99.9,79,47,48,30.10,29.85,12,-180,12,0.00
2013-10-28,57.2,42.5,37.1,44.9,16.2,-99.9,93,54,51,30.35,30.10,13,-162,13,0.00
2013-10-29,53.9,37.3,37.3,39.9,11.7,-99.9,89,58,41,30.43,30.35,5,-175,5,0.00
2013-10-30,57.0,41.1,34.8,49.7,23.9,-99.9,95,74,70,30.40,30.23,8,-134,8,0.01
2013-10-31,65.0,47.6,41.5,61.9,26.9,-99.9,99,73,81,30.27,29.90,18,-177,20,0.01
2013-11-1,69.0,47.9,60.5,65.3,21.3,-99.9,95,69,86,29.90,29.58,28,-239,30,0.02
2013-11-2,61.7,42.8,53.6,58.9,14.9,-99.9,96,67,78,29.74,29.62,5,-257,6,0.01
2013-11-3,55.8,35.3,37.0,50.7,10.8,-99.9,95,65,60,30.39,29.72,12,-199,12,0.00
2013-11-4,43.8,30.8,33.2,31.7,3.1,-99.9,89,55,53,30.73,30.39,10,-199,12,0.00
2013-11-5,49.2,35.6,34.4,37.7,11.8,-99.9,91,61,60,30.74,30.56,7,-170,7,0.00
2013-11-6,58.0,44.7,38.2,54.7,25.7,-99.9,96,73,69,30.56,30.12,9,-152,10,0.00
2013-11-7,62.0,44.3,45.4,60.6,23.4,-99.9,98,76,83,30.12,29.70,14,-194,16,0.58
2013-11-8,49.1,33.4,39.5,41.4,-2.2,-99.9,86,44,47,30.12,29.83,16,-250,19,0.58
2013-11-9,44.8,34.7,37.3,35.8,6.9,-99.9,78,51,47,30.23,30.08,11,-170,11,0.00
2013-11-10,48.5,47.1,41.6,41.0,38.8,35.5,80,73,69,30.08,29.81,13,5,16,0.05
2013-11-11,53.9,38.7,42.4,47.3,8.7,-99.9,79,51,46,30.13,29.90,15,-200,18,0.05
2013-11-12,54.4,26.9,29.7,47.7,2.2,-99.9,96,68,62,30.21,29.90,12,-217,13,0.12
2013-11-13,37.5,26.0,27.0,23.2,-6.6,-99.9,75,45,45,30.31,30.20,11,-216,11,0.00
2013-11-14,50.4,37.9,34.5,38.9,9.4,-99.9,80,50,47,30.25,30.10,14,-176,16,0.00
2013-11-15,55.5,43.1,47.9,49.9,20.2,-99.9,92,66,61,30.27,30.19,11,-174,11,0.00
2013-11-16,55.8,39.7,44.0,48.8,12.1,-99.9,96,61,50,30.34,30.23,7,-219,7,0.00
2013-11-24,28.0,25.6,23.5,8.1,4.4,0.7,46,40,31,30.22,29.99,24,10,27,0.00
2013-11-25,35.9,23.1,20.1,27.1,-8.8,-99.9,74,39,27,30.43,30.22,18,-164,18,0.00
2013-12-1,48.0,47.0,46.3,47.2,46.3,45.3,98,97,96,30.07,29.98,9,1,9,0.00
2013-12-2,46.8,31.4,38.9,46.3,7.6,-99.9,99,74,92,30.01,29.92,5,-228,5,0.00
2013-12-3,49.3,31.3,37.5,39.8,3.1,-99.9,96,64,65,29.97,29.83,7,-250,8,0.00
2013-12-4,45.3,31.8,30.4,35.9,10.6,-99.9,96,68,61,30.25,29.97,8,-166,10,0.00
2013-12-5,54.3,36.7,30.2,54.0,13.1,-99.9,100,74,91,30.25,29.99,9,-226,11,0.01
2013-12-6,55.1,25.2,43.2,54.8,-24.8,-99.9,99,49,95,30.14,29.93,8,-497,9,0.05
2013-12-7,41.3,25.0,30.9,35.6,-10.4,-99.9,96,54,66,30.50,30.07,9,-310,9,0.05
2013-12-8,33.4,24.5,28.1,24.6,-4.5,-99.9,79,53,61,30.64,30.49,5,-216,5,0.00
2013-12-9,45.6,29.6,30.1,45.1,0.6,-99.9,99,68,72,30.52,29.90,19,-278,19,0.03
2013-12-10,38.4,25.1,28.2,37.1,-0.5,-99.9,98,70,75,30.07,29.83,11,-239,11,0.01
2013-12-11,33.9,22.3,26.8,23.4,-14.2,-99.9,80,47,58,30.31,30.07,13,-292,15,0.01
2013-12-12,31.4,19.7,20.7,20.2,-12.6,-99.9,74,43,40,30.32,30.15,12,-207,13,0.01
2013-12-13,32.2,23.6,22.4,18.9,-4.5,-99.9,74,48,49,30.39,30.07,15,-172,18,0.00
2013-12-14,32.2,19.4,17.2,31.3,-6.4,-99.9,97,65,64,30.61,30.14,17,-220,19,0.00
2013-12-15,49.1,23.4,28.8,48.7,-8.2,-99.9,99,63,71,30.14,29.36,14,-294,16,0.00
2013-12-16,33.5,22.0,24.2,26.0,-11.6,-99.9,78,42,44,30.27,29.82,16,-222,16,0.00
2013-12-17,40.7,23.4,15.4,39.6,1.1,-99.9,97,67,56,30.32,29.90,11,-179,14,0.09
2013-12-18,35.2,23.0,25.1,26.6,-10.1,-99.9,96,53,58,30.16,29.81,12,-274,14,0.09
2013-12-19,46.1,32.3,30.6,38.4,6.5,-99.9,84,60,67,30.19,30.03,16,-198,18,0.00
2013-12-20,49.7,36.7,35.5,46.7,15.9,-99.9,97,73,81,30.19,30.01,11,-180,12,0.00
2013-12-21,52.3,38.4,46.7,51.1,14.5,-99.9,100,73,89,30.07,29.96,11,-223,12,0.00
2013-12-22,57.4,39.3,48.9,56.5,14.4,-99.9,100,74,89,30.04,29.89,11,-242,11,0.00
2013-12-23,51.9,28.7,36.9,50.7,-3.6,-99.9,99,67,93,30.10,29.96,12,-318,12,0.34
2013-12-24,39.5,22.4,30.0,39.2,-13.6,-99.9,99,52,64,30.24,30.03,11,-312,11,0.37
2013-12-25,30.2,17.7,18.9,23.9,-11.3,-99.9,81,51,53,30.61,30.23,12,-204,12,0.00
2013-12-26,40.6,27.6,20.4,37.6,5.9,-99.9,97,71,77,30.55,30.09,16,-185,16,0.15
2013-12-27,36.4,26.2,29.7,26.7,-2.9,-99.9,83,54,58,30.34,30.26,11,-219,12,0.15
2013-12-28,47.3,33.5,32.0,40.0,7.3,-99.9,93,61,64,30.31,30.07,16,-205,16,0.00
2013-12-29,54.3,34.0,39.3,54.0,10.0,-99.9,99,74,91,30.11,29.35,23,-228,29,1.10
2013-12-30,43.3,25.9,25.5,39.6,-8.1,-99.9,98,52,55,30.18,29.50,12,-276,15,1.10
2013-12-31,29.2,19.5,19.7,21.3,-12.5,-99.9,77,50,55,30.23,30.08,15,-242,17,0.00
2014-1-1,29.9,21.1,23.4,17.6,-10.0,-99.9,69,45,48,30.44,30.23,14,-203,15,0.00
2014-1-2,31.5,20.8,23.6,30.5,-7.3,-99.9,96,67,58,30.39,29.70,16,-260,17,0.00